Fort Harrison, MT (59636)

5:58 AM MDT on September 30, 2014 (GMT -0600)
RAWS HELENA PORTABLE #2 MT US | Change Station
CLOSE
Current Station
Personal Weather Station
Location: Fort Harrison, MT
Elevation: 4939 ft
Nearby Weather Stations

Elev 4939 ft 46.58 °N, 112.08 °W | Updated 26 minutes ago

Overcast
Overcast
51 °F
Feels Like 51 °F
N
4
Wind Variable Wind from WSW
Gusts 15.0 mph

Today
High -- | Low -- °F
--% Chance of Precip.
Yesterday
High -- | Low -- °F
Precip. -- in
7:25 AM 7:09 PM
Waxing Crescent, 36% visible
Pressure 29.76 in
Visibility 10.0 miles
Clouds Few 7500 ft
Overcast 9500 ft
Dew Point 39 °F
Humidity 63%
Rainfall 0.01 in
Snow Depth 0 in , 0 in , 3 in
UV 0 out of 12
Pollen 3.80 out of 12
Air Quality Not available.
Flu Activity Not available.
METAR KHLN 301053Z AUTO 30007KT 10SM FEW075 OVC095 13/06 A2978 RMK AO2 SLP078 T01280061

More Conditions Fewer Conditions

Pressure 29.76 in
Visibility 10.0 miles
Clouds Few 7500 ft
Overcast 9500 ft
Dew Point 39 °F
Humidity 63%
Rainfall 0.01 in
Snow Depth 0 in , 0 in , 3 in
UV 0 out of 12
Pollen 3.80 out of 12
Air Quality Not available.
Flu Activity Not available.
METAR KHLN 301053Z AUTO 30007KT 10SM FEW075 OVC095 13/06 A2978 RMK AO2 SLP078 T01280061

More Conditions Fewer Conditions

10-Day Weather Forecast

Almanac

Astronomy

Sep. 30, 2014 Rise Set
Actual Time 7:25 AM MDT 7:09 PM MDT
Civil Twilight 6:55 AM MDT 7:40 PM MDT
Nautical Twilight 6:20 AM MDT 8:15 PM MDT
Astronomical Twilight 5:44 AM MDT 8:50 PM MDT
Moon 1:53 PM MDT 11:27 PM MDT
Length of Visible Light 12h 44m
Length of Day
11h 44m
Tomorrow will be 3m 18s shorter.
Waxing Crescent, 36% of the Moon is Illuminated
Today
Waxing Crescent
Oct 1
First Quarter
Oct 8
Full
Oct 15
Last Quarter
Oct 23
New

Today's Extremes

State Highs State Lows

Community

WunderPhotos

Upload Photos

1,757,618 photos uploaded!

Nearby

Snow Depth

Station Depth Elevation
Burnt Mountain 0 in 5880 ft
Stahl Peak 0 in 6030 ft
Albro Lake 3 in 8300 ft
Lemhi Ridge 0 in 8100 ft
Boulder Mountain 0 in 7950 ft

Earthquake Activity

City Distance Mag. Time & Date
Lincoln, Montana 28 miles 3.6 10:42 PM MDT
2014-09-27
Minimum magnitude displayed is 2.5.

Coastal Water Temperatures

Place Temperature
No Stations Reporting

Nearby Weather Stations